sensor_id;sensor_type;location;lat;lon;timestamp;P1;durP1;ratioP1;P2;durP2;ratioP2
27402;SDS011;14862;49.494;8.530;2024-02-15T00:01:29;10.52;;;6.22;;
27402;SDS011;14862;49.494;8.530;2024-02-15T00:03:54;8.65;;;5.82;;
27402;SDS011;14862;49.494;8.530;2024-02-15T00:06:20;7.90;;;5.43;;
27402;SDS011;14862;49.494;8.530;2024-02-15T00:08:45;6.43;;;5.47;;
27402;SDS011;14862;49.494;8.530;2024-02-15T00:11:10;11.82;;;6.30;;
27402;SDS011;14862;49.494;8.530;2024-02-15T00:13:35;6.63;;;5.43;;
27402;SDS011;14862;49.494;8.530;2024-02-15T00:16:01;9.68;;;6.35;;
27402;SDS011;14862;49.494;8.530;2024-02-15T00:18:26;6.97;;;6.13;;
27402;SDS011;14862;49.494;8.530;2024-02-15T00:20:52;9.50;;;6.10;;
27402;SDS011;14862;49.494;8.530;2024-02-15T00:23:17;8.40;;;5.80;;
27402;SDS011;14862;49.494;8.530;2024-02-15T00:25:42;7.67;;;5.93;;
27402;SDS011;14862;49.494;8.530;2024-02-15T00:28:09;7.68;;;5.82;;
27402;SDS011;14862;49.494;8.530;2024-02-15T00:30:35;8.18;;;5.50;;
27402;SDS011;14862;49.494;8.530;2024-02-15T00:33:01;8.93;;;5.75;;
27402;SDS011;14862;49.494;8.530;2024-02-15T00:35:27;8.95;;;5.25;;
27402;SDS011;14862;49.494;8.530;2024-02-15T00:37:53;6.80;;;5.20;;
27402;SDS011;14862;49.494;8.530;2024-02-15T00:40:18;11.48;;;5.43;;
27402;SDS011;14862;49.494;8.530;2024-02-15T00:42:43;9.13;;;5.70;;
27402;SDS011;14862;49.494;8.530;2024-02-15T00:45:08;10.17;;;5.77;;
27402;SDS011;14862;49.494;8.530;2024-02-15T00:47:34;11.13;;;5.65;;
27402;SDS011;14862;49.494;8.530;2024-02-15T00:49:59;7.25;;;4.45;;
27402;SDS011;14862;49.494;8.530;2024-02-15T00:52:24;8.73;;;4.77;;
27402;SDS011;14862;49.494;8.530;2024-02-15T00:54:50;8.77;;;4.68;;
27402;SDS011;14862;49.494;8.530;2024-02-15T00:57:15;6.47;;;4.57;;
27402;SDS011;14862;49.494;8.530;2024-02-15T00:59:41;7.33;;;4.63;;
27402;SDS011;14862;49.494;8.530;2024-02-15T01:02:06;7.20;;;4.57;;
27402;SDS011;14862;49.494;8.530;2024-02-15T01:04:31;6.77;;;4.73;;
27402;SDS011;14862;49.494;8.530;2024-02-15T01:06:56;7.88;;;4.72;;
27402;SDS011;14862;49.494;8.530;2024-02-15T01:09:22;5.33;;;4.00;;
27402;SDS011;14862;49.494;8.530;2024-02-15T01:11:47;7.75;;;4.30;;
27402;SDS011;14862;49.494;8.530;2024-02-15T01:14:12;5.63;;;3.77;;
27402;SDS011;14862;49.494;8.530;2024-02-15T01:16:38;4.80;;;3.92;;
27402;SDS011;14862;49.494;8.530;2024-02-15T01:19:03;7.95;;;3.80;;
27402;SDS011;14862;49.494;8.530;2024-02-15T01:21:28;6.57;;;4.40;;
27402;SDS011;14862;49.494;8.530;2024-02-15T01:23:53;5.73;;;4.30;;
27402;SDS011;14862;49.494;8.530;2024-02-15T01:26:19;6.00;;;3.55;;
27402;SDS011;14862;49.494;8.530;2024-02-15T01:28:45;7.07;;;4.00;;
27402;SDS011;14862;49.494;8.530;2024-02-15T01:31:10;8.98;;;4.72;;
27402;SDS011;14862;49.494;8.530;2024-02-15T01:33:36;6.45;;;4.05;;
27402;SDS011;14862;49.494;8.530;2024-02-15T01:36:02;4.78;;;3.72;;
27402;SDS011;14862;49.494;8.530;2024-02-15T01:38:27;6.18;;;4.18;;
27402;SDS011;14862;49.494;8.530;2024-02-15T01:40:52;8.03;;;3.90;;
27402;SDS011;14862;49.494;8.530;2024-02-15T01:43:17;7.60;;;4.00;;
27402;SDS011;14862;49.494;8.530;2024-02-15T01:45:42;6.73;;;4.40;;
27402;SDS011;14862;49.494;8.530;2024-02-15T01:48:08;6.93;;;4.13;;
27402;SDS011;14862;49.494;8.530;2024-02-15T01:50:33;6.18;;;4.32;;
27402;SDS011;14862;49.494;8.530;2024-02-15T01:52:59;5.60;;;3.90;;
27402;SDS011;14862;49.494;8.530;2024-02-15T01:55:24;6.72;;;4.78;;
27402;SDS011;14862;49.494;8.530;2024-02-15T01:57:49;6.60;;;4.13;;
27402;SDS011;14862;49.494;8.530;2024-02-15T02:00:15;7.68;;;4.30;;
27402;SDS011;14862;49.494;8.530;2024-02-15T02:02:42;4.88;;;3.85;;
27402;SDS011;14862;49.494;8.530;2024-02-15T02:05:09;9.43;;;4.53;;
27402;SDS011;14862;49.494;8.530;2024-02-15T02:07:34;8.07;;;4.73;;
27402;SDS011;14862;49.494;8.530;2024-02-15T02:10:00;4.95;;;3.85;;
27402;SDS011;14862;49.494;8.530;2024-02-15T02:12:26;6.07;;;4.07;;
27402;SDS011;14862;49.494;8.530;2024-02-15T02:14:52;4.75;;;3.88;;
27402;SDS011;14862;49.494;8.530;2024-02-15T02:17:18;6.90;;;4.50;;
27402;SDS011;14862;49.494;8.530;2024-02-15T02:19:44;6.45;;;4.25;;
27402;SDS011;14862;49.494;8.530;2024-02-15T02:22:10;5.32;;;4.35;;
27402;SDS011;14862;49.494;8.530;2024-02-15T02:24:40;5.40;;;4.15;;
27402;SDS011;14862;49.494;8.530;2024-02-15T02:27:10;6.47;;;4.15;;
27402;SDS011;14862;49.494;8.530;2024-02-15T02:29:41;6.63;;;4.45;;
27402;SDS011;14862;49.494;8.530;2024-02-15T02:32:08;6.97;;;4.18;;
27402;SDS011;14862;49.494;8.530;2024-02-15T02:34:33;6.07;;;4.40;;
27402;SDS011;14862;49.494;8.530;2024-02-15T02:36:58;7.55;;;4.50;;
27402;SDS011;14862;49.494;8.530;2024-02-15T02:39:23;8.13;;;4.00;;
27402;SDS011;14862;49.494;8.530;2024-02-15T02:41:49;5.88;;;4.55;;
27402;SDS011;14862;49.494;8.530;2024-02-15T02:44:14;6.70;;;4.10;;
27402;SDS011;14862;49.494;8.530;2024-02-15T02:46:39;4.93;;;3.80;;
27402;SDS011;14862;49.494;8.530;2024-02-15T02:49:06;5.13;;;4.00;;
27402;SDS011;14862;49.494;8.530;2024-02-15T02:51:32;5.40;;;4.25;;
27402;SDS011;14862;49.494;8.530;2024-02-15T02:53:57;5.80;;;4.17;;
27402;SDS011;14862;49.494;8.530;2024-02-15T02:56:22;7.80;;;4.40;;
27402;SDS011;14862;49.494;8.530;2024-02-15T02:58:48;6.95;;;4.82;;
27402;SDS011;14862;49.494;8.530;2024-02-15T03:01:13;10.30;;;5.37;;
27402;SDS011;14862;49.494;8.530;2024-02-15T03:03:38;7.97;;;5.35;;
27402;SDS011;14862;49.494;8.530;2024-02-15T03:06:04;13.10;;;5.50;;
27402;SDS011;14862;49.494;8.530;2024-02-15T03:08:30;6.15;;;4.82;;
27402;SDS011;14862;49.494;8.530;2024-02-15T03:10:55;8.83;;;4.90;;
27402;SDS011;14862;49.494;8.530;2024-02-15T03:13:20;6.15;;;4.25;;
27402;SDS011;14862;49.494;8.530;2024-02-15T03:15:45;6.63;;;4.70;;
27402;SDS011;14862;49.494;8.530;2024-02-15T03:18:17;5.00;;;4.28;;
27402;SDS011;14862;49.494;8.530;2024-02-15T03:20:42;10.30;;;5.32;;
27402;SDS011;14862;49.494;8.530;2024-02-15T03:23:08;7.13;;;5.03;;
27402;SDS011;14862;49.494;8.530;2024-02-15T03:25:33;7.60;;;4.18;;
27402;SDS011;14862;49.494;8.530;2024-02-15T03:27:59;8.68;;;4.97;;
27402;SDS011;14862;49.494;8.530;2024-02-15T03:30:29;8.07;;;4.72;;
27402;SDS011;14862;49.494;8.530;2024-02-15T03:32:56;9.70;;;4.90;;
27402;SDS011;14862;49.494;8.530;2024-02-15T03:35:22;6.63;;;4.50;;
27402;SDS011;14862;49.494;8.530;2024-02-15T03:37:50;7.65;;;4.95;;
27402;SDS011;14862;49.494;8.530;2024-02-15T03:40:21;7.60;;;4.85;;
27402;SDS011;14862;49.494;8.530;2024-02-15T03:42:47;7.03;;;4.60;;
27402;SDS011;14862;49.494;8.530;2024-02-15T03:45:12;11.63;;;5.72;;
27402;SDS011;14862;49.494;8.530;2024-02-15T03:47:37;12.13;;;4.90;;
27402;SDS011;14862;49.494;8.530;2024-02-15T03:50:03;8.57;;;4.93;;
27402;SDS011;14862;49.494;8.530;2024-02-15T03:52:28;10.57;;;4.60;;
27402;SDS011;14862;49.494;8.530;2024-02-15T03:54:55;6.43;;;3.90;;
27402;SDS011;14862;49.494;8.530;2024-02-15T03:57:20;6.65;;;4.32;;
27402;SDS011;14862;49.494;8.530;2024-02-15T03:59:46;7.32;;;4.28;;
27402;SDS011;14862;49.494;8.530;2024-02-15T04:02:15;12.80;;;4.53;;
27402;SDS011;14862;49.494;8.530;2024-02-15T04:04:40;9.07;;;5.75;;
27402;SDS011;14862;49.494;8.530;2024-02-15T04:07:11;10.00;;;5.40;;
27402;SDS011;14862;49.494;8.530;2024-02-15T04:09:37;7.97;;;4.47;;
27402;SDS011;14862;49.494;8.530;2024-02-15T04:12:02;8.85;;;4.22;;
27402;SDS011;14862;49.494;8.530;2024-02-15T04:14:27;6.35;;;4.05;;
27402;SDS011;14862;49.494;8.530;2024-02-15T04:16:53;9.43;;;3.90;;
27402;SDS011;14862;49.494;8.530;2024-02-15T04:19:18;6.07;;;3.78;;
27402;SDS011;14862;49.494;8.530;2024-02-15T04:21:47;6.70;;;3.88;;
27402;SDS011;14862;49.494;8.530;2024-02-15T04:24:12;7.38;;;4.53;;
27402;SDS011;14862;49.494;8.530;2024-02-15T04:26:37;5.10;;;3.30;;
27402;SDS011;14862;49.494;8.530;2024-02-15T04:29:03;5.88;;;3.80;;
27402;SDS011;14862;49.494;8.530;2024-02-15T04:31:28;8.35;;;4.03;;
27402;SDS011;14862;49.494;8.530;2024-02-15T04:33:54;6.60;;;3.42;;
27402;SDS011;14862;49.494;8.530;2024-02-15T04:36:19;5.93;;;3.55;;
27402;SDS011;14862;49.494;8.530;2024-02-15T04:38:48;7.95;;;4.25;;
27402;SDS011;14862;49.494;8.530;2024-02-15T04:41:15;9.00;;;3.78;;
27402;SDS011;14862;49.494;8.530;2024-02-15T04:43:44;7.45;;;3.72;;
27402;SDS011;14862;49.494;8.530;2024-02-15T04:46:11;5.03;;;3.33;;
27402;SDS011;14862;49.494;8.530;2024-02-15T04:48:36;6.75;;;3.60;;
27402;SDS011;14862;49.494;8.530;2024-02-15T04:51:02;6.60;;;3.13;;
27402;SDS011;14862;49.494;8.530;2024-02-15T04:53:27;11.38;;;4.38;;
27402;SDS011;14862;49.494;8.530;2024-02-15T04:55:54;8.15;;;3.70;;
27402;SDS011;14862;49.494;8.530;2024-02-15T04:58:20;5.07;;;3.20;;
27402;SDS011;14862;49.494;8.530;2024-02-15T05:00:45;7.27;;;4.13;;
27402;SDS011;14862;49.494;8.530;2024-02-15T05:03:10;6.32;;;3.45;;
27402;SDS011;14862;49.494;8.530;2024-02-15T05:05:35;9.60;;;3.43;;
27402;SDS011;14862;49.494;8.530;2024-02-15T05:08:01;8.40;;;3.63;;
27402;SDS011;14862;49.494;8.530;2024-02-15T05:10:26;8.27;;;3.58;;
27402;SDS011;14862;49.494;8.530;2024-02-15T05:12:52;6.00;;;3.17;;
27402;SDS011;14862;49.494;8.530;2024-02-15T05:15:18;6.82;;;4.00;;
27402;SDS011;14862;49.494;8.530;2024-02-15T05:17:47;7.05;;;4.07;;
27402;SDS011;14862;49.494;8.530;2024-02-15T05:20:12;7.07;;;3.63;;
27402;SDS011;14862;49.494;8.530;2024-02-15T05:22:38;9.15;;;4.90;;
27402;SDS011;14862;49.494;8.530;2024-02-15T05:25:05;5.25;;;3.83;;
27402;SDS011;14862;49.494;8.530;2024-02-15T05:27:30;6.97;;;4.47;;
27402;SDS011;14862;49.494;8.530;2024-02-15T05:29:56;7.30;;;4.10;;
27402;SDS011;14862;49.494;8.530;2024-02-15T05:32:21;9.70;;;5.10;;
27402;SDS011;14862;49.494;8.530;2024-02-15T05:34:46;7.55;;;4.22;;
27402;SDS011;14862;49.494;8.530;2024-02-15T05:37:12;8.65;;;4.25;;
27402;SDS011;14862;49.494;8.530;2024-02-15T05:39:38;8.15;;;4.10;;
27402;SDS011;14862;49.494;8.530;2024-02-15T05:42:04;9.90;;;4.05;;
27402;SDS011;14862;49.494;8.530;2024-02-15T05:44:30;7.00;;;4.00;;
27402;SDS011;14862;49.494;8.530;2024-02-15T05:46:55;9.15;;;4.15;;
27402;SDS011;14862;49.494;8.530;2024-02-15T05:49:21;5.88;;;3.60;;
27402;SDS011;14862;49.494;8.530;2024-02-15T05:51:48;7.65;;;3.40;;
27402;SDS011;14862;49.494;8.530;2024-02-15T05:54:14;7.57;;;4.20;;
27402;SDS011;14862;49.494;8.530;2024-02-15T05:56:39;6.55;;;3.70;;
27402;SDS011;14862;49.494;8.530;2024-02-15T05:59:04;5.82;;;3.80;;
27402;SDS011;14862;49.494;8.530;2024-02-15T06:01:35;7.70;;;4.22;;
27402;SDS011;14862;49.494;8.530;2024-02-15T06:04:00;7.55;;;4.20;;
27402;SDS011;14862;49.494;8.530;2024-02-15T06:06:25;9.20;;;3.67;;
27402;SDS011;14862;49.494;8.530;2024-02-15T06:08:51;9.80;;;4.18;;
27402;SDS011;14862;49.494;8.530;2024-02-15T06:11:20;4.47;;;3.35;;
27402;SDS011;14862;49.494;8.530;2024-02-15T06:13:45;9.32;;;3.92;;
27402;SDS011;14862;49.494;8.530;2024-02-15T06:16:11;9.55;;;3.85;;
27402;SDS011;14862;49.494;8.530;2024-02-15T06:18:36;8.10;;;3.90;;
27402;SDS011;14862;49.494;8.530;2024-02-15T06:21:02;7.88;;;4.18;;
27402;SDS011;14862;49.494;8.530;2024-02-15T06:23:28;7.57;;;3.72;;
27402;SDS011;14862;49.494;8.530;2024-02-15T06:25:54;7.50;;;3.67;;
27402;SDS011;14862;49.494;8.530;2024-02-15T06:28:22;7.95;;;3.90;;
27402;SDS011;14862;49.494;8.530;2024-02-15T06:31:09;7.22;;;3.45;;
27402;SDS011;14862;49.494;8.530;2024-02-15T06:33:54;7.03;;;3.47;;
27402;SDS011;14862;49.494;8.530;2024-02-15T06:36:48;8.90;;;3.90;;
27402;SDS011;14862;49.494;8.530;2024-02-15T06:39:32;7.07;;;4.33;;
27402;SDS011;14862;49.494;8.530;2024-02-15T06:44:31;7.03;;;3.88;;
27402;SDS011;14862;49.494;8.530;2024-02-15T06:46:57;5.53;;;3.97;;
27402;SDS011;14862;49.494;8.530;2024-02-15T06:49:23;8.10;;;4.37;;
27402;SDS011;14862;49.494;8.530;2024-02-15T06:51:49;7.80;;;3.65;;
27402;SDS011;14862;49.494;8.530;2024-02-15T06:54:15;5.78;;;3.85;;
27402;SDS011;14862;49.494;8.530;2024-02-15T06:56:42;9.38;;;4.07;;
27402;SDS011;14862;49.494;8.530;2024-02-15T06:59:08;8.32;;;4.03;;
27402;SDS011;14862;49.494;8.530;2024-02-15T07:01:35;8.43;;;3.67;;
27402;SDS011;14862;49.494;8.530;2024-02-15T07:04:00;9.27;;;4.05;;
27402;SDS011;14862;49.494;8.530;2024-02-15T07:06:29;9.15;;;3.95;;
27402;SDS011;14862;49.494;8.530;2024-02-15T07:08:56;6.38;;;4.30;;
27402;SDS011;14862;49.494;8.530;2024-02-15T07:11:22;7.60;;;4.28;;
27402;SDS011;14862;49.494;8.530;2024-02-15T07:13:47;7.65;;;3.88;;
27402;SDS011;14862;49.494;8.530;2024-02-15T07:16:12;9.40;;;4.18;;
27402;SDS011;14862;49.494;8.530;2024-02-15T07:18:40;8.00;;;4.30;;
27402;SDS011;14862;49.494;8.530;2024-02-15T07:21:05;10.10;;;4.47;;
27402;SDS011;14862;49.494;8.530;2024-02-15T07:23:36;8.73;;;5.05;;
27402;SDS011;14862;49.494;8.530;2024-02-15T07:26:01;8.43;;;3.70;;
27402;SDS011;14862;49.494;8.530;2024-02-15T07:28:26;11.30;;;4.77;;
27402;SDS011;14862;49.494;8.530;2024-02-15T07:30:52;10.03;;;4.17;;
27402;SDS011;14862;49.494;8.530;2024-02-15T07:33:17;8.43;;;3.83;;
27402;SDS011;14862;49.494;8.530;2024-02-15T07:35:43;7.35;;;4.35;;
27402;SDS011;14862;49.494;8.530;2024-02-15T07:38:08;8.63;;;4.00;;
27402;SDS011;14862;49.494;8.530;2024-02-15T07:40:33;7.20;;;3.50;;
27402;SDS011;14862;49.494;8.530;2024-02-15T07:42:58;8.32;;;3.70;;
27402;SDS011;14862;49.494;8.530;2024-02-15T07:45:24;10.27;;;3.73;;
27402;SDS011;14862;49.494;8.530;2024-02-15T07:47:49;5.95;;;3.78;;
27402;SDS011;14862;49.494;8.530;2024-02-15T07:50:16;8.38;;;3.38;;
27402;SDS011;14862;49.494;8.530;2024-02-15T07:52:45;8.25;;;3.95;;
27402;SDS011;14862;49.494;8.530;2024-02-15T07:55:10;7.40;;;3.63;;
27402;SDS011;14862;49.494;8.530;2024-02-15T07:57:35;14.53;;;3.70;;
27402;SDS011;14862;49.494;8.530;2024-02-15T08:00:00;14.40;;;3.97;;
27402;SDS011;14862;49.494;8.530;2024-02-15T08:02:25;8.10;;;3.20;;
27402;SDS011;14862;49.494;8.530;2024-02-15T08:04:53;7.10;;;3.85;;
27402;SDS011;14862;49.494;8.530;2024-02-15T08:07:19;6.47;;;3.30;;
27402;SDS011;14862;49.494;8.530;2024-02-15T08:09:45;6.82;;;3.40;;
27402;SDS011;14862;49.494;8.530;2024-02-15T08:12:11;8.32;;;3.25;;
27402;SDS011;14862;49.494;8.530;2024-02-15T08:14:36;7.68;;;3.08;;
27402;SDS011;14862;49.494;8.530;2024-02-15T08:17:02;5.45;;;3.08;;
27402;SDS011;14862;49.494;8.530;2024-02-15T08:19:28;6.38;;;3.50;;
27402;SDS011;14862;49.494;8.530;2024-02-15T08:21:53;5.30;;;3.13;;
27402;SDS011;14862;49.494;8.530;2024-02-15T08:24:19;5.83;;;2.97;;
27402;SDS011;14862;49.494;8.530;2024-02-15T08:26:44;4.63;;;2.70;;
27402;SDS011;14862;49.494;8.530;2024-02-15T08:29:10;6.05;;;3.65;;
27402;SDS011;14862;49.494;8.530;2024-02-15T08:31:36;6.55;;;3.30;;
27402;SDS011;14862;49.494;8.530;2024-02-15T08:34:02;5.53;;;3.20;;
27402;SDS011;14862;49.494;8.530;2024-02-15T08:36:30;10.43;;;3.78;;
27402;SDS011;14862;49.494;8.530;2024-02-15T08:38:55;5.03;;;3.38;;
27402;SDS011;14862;49.494;8.530;2024-02-15T08:41:20;8.40;;;3.27;;
27402;SDS011;14862;49.494;8.530;2024-02-15T08:43:48;5.38;;;2.88;;
27402;SDS011;14862;49.494;8.530;2024-02-15T08:46:14;8.68;;;3.10;;
27402;SDS011;14862;49.494;8.530;2024-02-15T08:48:39;6.05;;;2.65;;
27402;SDS011;14862;49.494;8.530;2024-02-15T08:51:05;7.05;;;2.90;;
27402;SDS011;14862;49.494;8.530;2024-02-15T08:53:34;6.53;;;2.85;;
27402;SDS011;14862;49.494;8.530;2024-02-15T08:55:59;6.55;;;3.60;;
27402;SDS011;14862;49.494;8.530;2024-02-15T08:58:24;5.82;;;2.97;;
27402;SDS011;14862;49.494;8.530;2024-02-15T09:00:50;4.77;;;2.73;;
27402;SDS011;14862;49.494;8.530;2024-02-15T09:03:15;6.45;;;3.50;;
27402;SDS011;14862;49.494;8.530;2024-02-15T09:05:40;7.63;;;3.35;;
27402;SDS011;14862;49.494;8.530;2024-02-15T09:08:06;4.13;;;2.87;;
27402;SDS011;14862;49.494;8.530;2024-02-15T09:10:31;5.40;;;2.90;;
27402;SDS011;14862;49.494;8.530;2024-02-15T09:12:56;3.75;;;2.75;;
27402;SDS011;14862;49.494;8.530;2024-02-15T09:15:22;5.05;;;3.25;;
27402;SDS011;14862;49.494;8.530;2024-02-15T09:17:47;6.32;;;3.35;;
27402;SDS011;14862;49.494;8.530;2024-02-15T09:20:13;8.18;;;3.17;;
27402;SDS011;14862;49.494;8.530;2024-02-15T09:22:50;5.80;;;3.20;;
27402;SDS011;14862;49.494;8.530;2024-02-15T09:25:16;5.13;;;2.80;;
27402;SDS011;14862;49.494;8.530;2024-02-15T09:27:41;3.60;;;2.70;;
27402;SDS011;14862;49.494;8.530;2024-02-15T09:30:07;6.68;;;2.65;;
27402;SDS011;14862;49.494;8.530;2024-02-15T09:32:34;3.58;;;2.95;;
27402;SDS011;14862;49.494;8.530;2024-02-15T09:35:00;3.90;;;2.85;;
27402;SDS011;14862;49.494;8.530;2024-02-15T09:37:25;6.00;;;3.13;;
27402;SDS011;14862;49.494;8.530;2024-02-15T09:39:53;5.05;;;2.88;;
27402;SDS011;14862;49.494;8.530;2024-02-15T09:42:18;6.83;;;2.83;;
27402;SDS011;14862;49.494;8.530;2024-02-15T09:44:43;3.92;;;2.70;;
27402;SDS011;14862;49.494;8.530;2024-02-15T09:47:09;5.30;;;2.80;;
27402;SDS011;14862;49.494;8.530;2024-02-15T09:49:38;7.32;;;3.03;;
27402;SDS011;14862;49.494;8.530;2024-02-15T09:52:04;5.60;;;2.55;;
27402;SDS011;14862;49.494;8.530;2024-02-15T09:54:31;4.75;;;3.03;;
27402;SDS011;14862;49.494;8.530;2024-02-15T09:56:58;6.43;;;2.50;;
27402;SDS011;14862;49.494;8.530;2024-02-15T09:59:26;4.18;;;2.20;;
27402;SDS011;14862;49.494;8.530;2024-02-15T10:01:51;4.35;;;2.75;;
27402;SDS011;14862;49.494;8.530;2024-02-15T10:04:18;4.22;;;2.38;;
27402;SDS011;14862;49.494;8.530;2024-02-15T10:06:43;5.23;;;2.43;;
27402;SDS011;14862;49.494;8.530;2024-02-15T10:09:24;4.63;;;2.28;;
27402;SDS011;14862;49.494;8.530;2024-02-15T10:11:55;3.75;;;1.92;;
27402;SDS011;14862;49.494;8.530;2024-02-15T10:14:21;4.10;;;1.67;;
27402;SDS011;14862;49.494;8.530;2024-02-15T10:16:46;4.90;;;1.85;;
27402;SDS011;14862;49.494;8.530;2024-02-15T10:19:11;6.57;;;2.10;;
27402;SDS011;14862;49.494;8.530;2024-02-15T10:21:37;3.13;;;1.65;;
27402;SDS011;14862;49.494;8.530;2024-02-15T10:24:07;2.42;;;1.40;;
27402;SDS011;14862;49.494;8.530;2024-02-15T10:26:33;4.68;;;1.30;;
27402;SDS011;14862;49.494;8.530;2024-02-15T10:29:09;3.90;;;1.63;;
27402;SDS011;14862;49.494;8.530;2024-02-15T10:31:35;2.60;;;1.50;;
27402;SDS011;14862;49.494;8.530;2024-02-15T10:34:02;5.53;;;1.83;;
27402;SDS011;14862;49.494;8.530;2024-02-15T10:36:29;2.67;;;1.52;;
27402;SDS011;14862;49.494;8.530;2024-02-15T10:38:59;2.47;;;1.40;;
27402;SDS011;14862;49.494;8.530;2024-02-15T10:41:35;4.32;;;1.35;;
27402;SDS011;14862;49.494;8.530;2024-02-15T10:44:01;3.40;;;1.38;;
27402;SDS011;14862;49.494;8.530;2024-02-15T10:46:27;3.63;;;1.20;;
27402;SDS011;14862;49.494;8.530;2024-02-15T10:48:52;3.70;;;1.65;;
27402;SDS011;14862;49.494;8.530;2024-02-15T10:51:17;4.33;;;1.50;;
27402;SDS011;14862;49.494;8.530;2024-02-15T10:53:45;4.13;;;1.73;;
27402;SDS011;14862;49.494;8.530;2024-02-15T10:56:17;5.20;;;1.40;;
27402;SDS011;14862;49.494;8.530;2024-02-15T10:58:46;6.32;;;1.75;;
27402;SDS011;14862;49.494;8.530;2024-02-15T11:01:12;5.40;;;1.67;;
27402;SDS011;14862;49.494;8.530;2024-02-15T11:03:46;5.03;;;1.95;;
27402;SDS011;14862;49.494;8.530;2024-02-15T11:06:13;3.47;;;2.00;;
27402;SDS011;14862;49.494;8.530;2024-02-15T11:08:39;3.42;;;1.80;;
27402;SDS011;14862;49.494;8.530;2024-02-15T11:11:05;4.57;;;2.00;;
27402;SDS011;14862;49.494;8.530;2024-02-15T11:13:30;3.17;;;1.60;;
27402;SDS011;14862;49.494;8.530;2024-02-15T11:15:55;5.07;;;2.00;;
27402;SDS011;14862;49.494;8.530;2024-02-15T11:18:56;3.50;;;1.45;;
27402;SDS011;14862;49.494;8.530;2024-02-15T11:21:16;3.08;;;1.95;;
27402;SDS011;14862;49.494;8.530;2024-02-15T11:23:43;4.88;;;1.42;;
27402;SDS011;14862;49.494;8.530;2024-02-15T11:26:10;2.78;;;1.33;;
27402;SDS011;14862;49.494;8.530;2024-02-15T11:28:54;6.68;;;1.80;;
27402;SDS011;14862;49.494;8.530;2024-02-15T11:34:41;4.25;;;1.55;;
27402;SDS011;14862;49.494;8.530;2024-02-15T11:36:49;4.80;;;1.80;;
27402;SDS011;14862;49.494;8.530;2024-02-15T11:42:30;3.30;;;1.52;;
27402;SDS011;14862;49.494;8.530;2024-02-15T11:45:05;4.25;;;1.60;;
27402;SDS011;14862;49.494;8.530;2024-02-15T11:47:32;5.75;;;1.80;;
27402;SDS011;14862;49.494;8.530;2024-02-15T11:49:59;6.10;;;1.70;;
27402;SDS011;14862;49.494;8.530;2024-02-15T11:52:24;3.38;;;1.63;;
27402;SDS011;14862;49.494;8.530;2024-02-15T11:54:49;4.47;;;1.70;;
27402;SDS011;14862;49.494;8.530;2024-02-15T11:57:15;4.63;;;1.45;;
27402;SDS011;14862;49.494;8.530;2024-02-15T11:59:47;4.18;;;1.55;;
27402;SDS011;14862;49.494;8.530;2024-02-15T12:02:20;4.15;;;1.95;;
27402;SDS011;14862;49.494;8.530;2024-02-15T12:05:05;2.80;;;1.50;;
27402;SDS011;14862;49.494;8.530;2024-02-15T12:07:48;3.13;;;1.48;;
27402;SDS011;14862;49.494;8.530;2024-02-15T12:10:32;4.65;;;1.63;;
27402;SDS011;14862;49.494;8.530;2024-02-15T12:13:19;5.57;;;1.65;;
27402;SDS011;14862;49.494;8.530;2024-02-15T12:16:23;3.50;;;1.70;;
27402;SDS011;14862;49.494;8.530;2024-02-15T12:19:06;2.60;;;1.77;;
27402;SDS011;14862;49.494;8.530;2024-02-15T12:21:32;4.63;;;1.70;;
27402;SDS011;14862;49.494;8.530;2024-02-15T12:23:58;2.95;;;1.65;;
27402;SDS011;14862;49.494;8.530;2024-02-15T12:26:24;4.32;;;1.67;;
27402;SDS011;14862;49.494;8.530;2024-02-15T12:28:50;3.83;;;1.83;;
27402;SDS011;14862;49.494;8.530;2024-02-15T12:31:15;4.75;;;2.78;;
27402;SDS011;14862;49.494;8.530;2024-02-15T12:33:40;5.53;;;1.53;;
27402;SDS011;14862;49.494;8.530;2024-02-15T12:36:06;3.47;;;1.30;;
27402;SDS011;14862;49.494;8.530;2024-02-15T12:38:31;6.03;;;1.52;;
27402;SDS011;14862;49.494;8.530;2024-02-15T12:40:59;3.10;;;2.22;;
27402;SDS011;14862;49.494;8.530;2024-02-15T12:43:25;3.88;;;1.55;;
27402;SDS011;14862;49.494;8.530;2024-02-15T12:45:51;4.55;;;1.80;;
27402;SDS011;14862;49.494;8.530;2024-02-15T12:48:18;4.82;;;1.60;;
27402;SDS011;14862;49.494;8.530;2024-02-15T12:50:44;6.82;;;1.90;;
27402;SDS011;14862;49.494;8.530;2024-02-15T12:53:09;4.65;;;1.45;;
27402;SDS011;14862;49.494;8.530;2024-02-15T12:55:35;3.27;;;1.47;;
27402;SDS011;14862;49.494;8.530;2024-02-15T12:58:04;4.97;;;1.52;;
27402;SDS011;14862;49.494;8.530;2024-02-15T13:00:33;5.35;;;1.70;;
27402;SDS011;14862;49.494;8.530;2024-02-15T13:03:01;5.68;;;1.60;;
27402;SDS011;14862;49.494;8.530;2024-02-15T13:05:28;3.63;;;2.08;;
27402;SDS011;14862;49.494;8.530;2024-02-15T13:07:54;3.30;;;1.80;;
27402;SDS011;14862;49.494;8.530;2024-02-15T13:10:20;2.88;;;1.70;;
27402;SDS011;14862;49.494;8.530;2024-02-15T13:12:46;4.63;;;1.60;;
27402;SDS011;14862;49.494;8.530;2024-02-15T13:15:15;3.43;;;1.60;;
27402;SDS011;14862;49.494;8.530;2024-02-15T13:17:45;5.00;;;2.08;;
27402;SDS011;14862;49.494;8.530;2024-02-15T13:20:11;11.55;;;2.72;;
27402;SDS011;14862;49.494;8.530;2024-02-15T13:22:36;8.18;;;3.03;;
27402;SDS011;14862;49.494;8.530;2024-02-15T13:25:03;9.95;;;2.75;;
27402;SDS011;14862;49.494;8.530;2024-02-15T13:27:29;5.10;;;2.72;;
27402;SDS011;14862;49.494;8.530;2024-02-15T13:29:54;3.40;;;2.30;;
27402;SDS011;14862;49.494;8.530;2024-02-15T13:32:20;8.90;;;2.55;;
27402;SDS011;14862;49.494;8.530;2024-02-15T13:34:46;4.88;;;2.40;;
27402;SDS011;14862;49.494;8.530;2024-02-15T13:37:12;3.85;;;1.88;;
27402;SDS011;14862;49.494;8.530;2024-02-15T13:39:39;5.50;;;1.60;;
27402;SDS011;14862;49.494;8.530;2024-02-15T13:42:08;5.07;;;1.30;;
27402;SDS011;14862;49.494;8.530;2024-02-15T13:44:33;2.92;;;1.30;;
27402;SDS011;14862;49.494;8.530;2024-02-15T13:46:58;4.63;;;1.70;;
27402;SDS011;14862;49.494;8.530;2024-02-15T13:49:23;3.63;;;1.47;;
27402;SDS011;14862;49.494;8.530;2024-02-15T13:51:48;4.33;;;1.47;;
27402;SDS011;14862;49.494;8.530;2024-02-15T13:54:16;4.35;;;1.52;;
27402;SDS011;14862;49.494;8.530;2024-02-15T13:56:42;7.53;;;1.45;;
27402;SDS011;14862;49.494;8.530;2024-02-15T13:59:07;3.42;;;1.83;;
27402;SDS011;14862;49.494;8.530;2024-02-15T14:01:33;2.75;;;1.75;;
27402;SDS011;14862;49.494;8.530;2024-02-15T14:03:59;5.38;;;1.30;;
27402;SDS011;14862;49.494;8.530;2024-02-15T14:06:24;4.37;;;1.67;;
27402;SDS011;14862;49.494;8.530;2024-02-15T14:08:49;3.83;;;1.40;;
27402;SDS011;14862;49.494;8.530;2024-02-15T14:11:16;3.28;;;1.67;;
27402;SDS011;14862;49.494;8.530;2024-02-15T14:13:42;5.32;;;1.70;;
27402;SDS011;14862;49.494;8.530;2024-02-15T14:16:07;4.03;;;1.63;;
27402;SDS011;14862;49.494;8.530;2024-02-15T14:18:33;5.20;;;2.25;;
27402;SDS011;14862;49.494;8.530;2024-02-15T14:20:58;6.05;;;2.33;;
27402;SDS011;14862;49.494;8.530;2024-02-15T14:23:25;5.50;;;2.90;;
27402;SDS011;14862;49.494;8.530;2024-02-15T14:25:52;3.97;;;1.90;;
27402;SDS011;14862;49.494;8.530;2024-02-15T14:28:18;2.90;;;1.60;;
27402;SDS011;14862;49.494;8.530;2024-02-15T14:30:43;6.85;;;2.17;;
27402;SDS011;14862;49.494;8.530;2024-02-15T14:33:27;7.82;;;2.30;;
27402;SDS011;14862;49.494;8.530;2024-02-15T14:35:53;6.05;;;2.10;;
27402;SDS011;14862;49.494;8.530;2024-02-15T14:38:21;6.40;;;1.70;;
27402;SDS011;14862;49.494;8.530;2024-02-15T14:40:48;4.38;;;1.80;;
27402;SDS011;14862;49.494;8.530;2024-02-15T14:43:20;3.53;;;1.65;;
27402;SDS011;14862;49.494;8.530;2024-02-15T14:45:46;4.65;;;2.20;;
27402;SDS011;14862;49.494;8.530;2024-02-15T14:48:12;4.25;;;1.60;;
27402;SDS011;14862;49.494;8.530;2024-02-15T14:50:40;2.92;;;1.85;;
27402;SDS011;14862;49.494;8.530;2024-02-15T14:53:06;4.25;;;1.55;;
27402;SDS011;14862;49.494;8.530;2024-02-15T14:55:34;4.38;;;1.50;;